createdAt,value
2022-10-07T00:02:52.384Z,5.75
2022-10-07T00:07:54.957Z,6.00
2022-10-07T00:12:57.138Z,6.18
2022-10-07T00:17:58.787Z,5.88
2022-10-07T00:23:00.434Z,6.05
2022-10-07T00:28:02.274Z,6.05
2022-10-07T00:33:05.061Z,5.88
2022-10-07T00:38:06.812Z,5.90
2022-10-07T00:43:32.189Z,6.40
2022-10-07T00:48:36.197Z,5.80
2022-10-07T00:53:40.215Z,6.70
2022-10-07T00:58:44.613Z,6.38
2022-10-07T01:03:48.956Z,6.85
2022-10-07T01:08:52.943Z,6.47
2022-10-07T01:14:00.808Z,6.93
2022-10-07T01:19:40.599Z,6.05
2022-10-07T01:25:12.889Z,6.03
2022-10-07T01:30:14.700Z,6.25
2022-10-07T01:35:19.905Z,6.30
2022-10-07T01:40:28.805Z,5.80
2022-10-07T01:45:32.814Z,5.85
2022-10-07T01:50:35.000Z,6.32
2022-10-07T01:55:56.905Z,6.40
2022-10-07T02:01:20.035Z,6.20
2022-10-07T02:06:59.508Z,5.57
2022-10-07T02:12:25.687Z,6.05
2022-10-07T02:17:27.893Z,6.38
2022-10-07T02:22:32.445Z,6.10
2022-10-07T02:27:37.515Z,6.20
2022-10-07T02:32:47.553Z,6.35
2022-10-07T02:37:53.271Z,6.35
2022-10-07T02:43:03.500Z,6.47
2022-10-07T02:48:35.171Z,6.38
2022-10-07T02:53:38.791Z,5.82
2022-10-07T02:58:45.731Z,6.00
2022-10-07T03:03:47.550Z,6.10
2022-10-07T03:08:49.696Z,6.50
2022-10-07T03:13:51.434Z,6.40
2022-10-07T03:18:53.129Z,6.15
2022-10-07T03:23:55.349Z,6.57
2022-10-07T03:28:56.968Z,6.45
2022-10-07T03:33:59.604Z,6.93
2022-10-07T03:39:01.290Z,6.43
2022-10-07T03:44:03.126Z,6.80
2022-10-07T03:49:04.810Z,7.68
2022-10-07T03:54:06.647Z,6.50
2022-10-07T03:59:08.303Z,7.07
2022-10-07T04:04:09.950Z,7.15
2022-10-07T04:09:14.883Z,7.22
2022-10-07T04:14:17.002Z,8.65
2022-10-07T04:19:18.666Z,7.53
2022-10-07T04:24:20.278Z,7.13
2022-10-07T04:29:21.980Z,7.18
2022-10-07T04:34:23.724Z,7.35
2022-10-07T04:39:42.713Z,6.57
2022-10-07T04:44:47.079Z,7.25
2022-10-07T04:49:48.734Z,7.43
2022-10-07T04:54:50.695Z,8.05
2022-10-07T04:59:52.310Z,7.75
2022-10-07T05:04:54.030Z,7.47
2022-10-07T05:09:55.624Z,8.60
2022-10-07T05:14:57.259Z,7.60
2022-10-07T05:19:58.905Z,21.23
2022-10-07T05:25:00.615Z,8.38
2022-10-07T05:30:02.284Z,8.10
2022-10-07T05:35:04.208Z,8.63
2022-10-07T05:40:06.244Z,7.68
2022-10-07T05:45:08.430Z,8.48
2022-10-07T05:50:10.310Z,8.10
2022-10-07T05:55:12.307Z,8.45
2022-10-07T06:00:14.291Z,8.65
2022-10-07T06:05:16.283Z,7.50
2022-10-07T06:10:36.711Z,10.13
2022-10-07T06:15:38.364Z,9.05
2022-10-07T06:20:40.039Z,8.55
2022-10-07T06:25:41.795Z,8.13
2022-10-07T06:30:43.552Z,8.10
2022-10-07T06:35:46.399Z,7.90
2022-10-07T06:41:01.497Z,6.70
2022-10-07T06:46:05.076Z,6.45
2022-10-07T06:51:06.879Z,6.47
2022-10-07T06:56:09.970Z,7.35
2022-10-07T07:01:13.108Z,6.65
2022-10-07T07:06:14.866Z,6.05
2022-10-07T07:11:37.096Z,5.65
2022-10-07T07:16:38.809Z,5.45
2022-10-07T07:21:41.073Z,5.22
2022-10-07T07:26:42.861Z,5.97
2022-10-07T07:31:44.507Z,7.07
2022-10-07T07:36:48.794Z,6.22
2022-10-07T07:41:50.940Z,6.10
2022-10-07T07:46:53.025Z,6.05
2022-10-07T07:51:56.702Z,5.43
2022-10-07T07:56:58.342Z,5.28
2022-10-07T08:02:00.551Z,5.38
2022-10-07T08:07:02.180Z,5.43
2022-10-07T08:12:03.945Z,4.88
2022-10-07T08:17:05.580Z,5.10
2022-10-07T08:27:39.582Z,4.65
2022-10-07T08:32:41.275Z,3.88
2022-10-07T08:37:43.434Z,3.75
2022-10-07T08:42:46.995Z,4.10
2022-10-07T08:47:50.646Z,3.38
2022-10-07T08:52:59.131Z,5.07
2022-10-07T08:58:05.473Z,4.07
2022-10-07T09:03:24.214Z,3.50
2022-10-07T09:08:33.668Z,3.22
2022-10-07T09:13:42.815Z,3.50
2022-10-07T09:18:50.811Z,3.85
2022-10-07T09:23:58.622Z,4.15
2022-10-07T09:29:00.337Z,4.07
2022-10-07T09:34:02.617Z,4.10
2022-10-07T09:39:22.459Z,3.40
2022-10-07T09:44:29.249Z,3.28
2022-10-07T09:49:45.252Z,3.45
2022-10-07T09:54:49.811Z,4.35
2022-10-07T09:59:51.723Z,3.00
2022-10-07T10:04:56.164Z,3.25
2022-10-07T10:10:05.306Z,3.30
2022-10-07T10:15:25.983Z,2.95
2022-10-07T10:20:36.316Z,3.00
2022-10-07T10:26:12.638Z,2.38
2022-10-07T10:31:43.109Z,2.28
2022-10-07T10:36:52.940Z,2.50
2022-10-07T10:41:58.427Z,1.90
2022-10-07T10:47:05.911Z,2.30
2022-10-07T10:52:39.058Z,2.05
2022-10-07T10:58:00.313Z,1.80
2022-10-07T11:03:36.145Z,1.80
2022-10-07T11:08:38.812Z,1.63
2022-10-07T11:13:47.032Z,2.83
2022-10-07T11:18:53.792Z,1.85
2022-10-07T11:24:04.467Z,1.77
2022-10-07T11:29:33.629Z,1.42
2022-10-07T11:34:54.286Z,1.50
2022-10-07T11:39:56.785Z,1.65
2022-10-07T11:45:33.696Z,2.03
2022-10-07T11:51:04.346Z,1.77
2022-10-07T11:56:20.736Z,1.50
2022-10-07T12:01:25.473Z,1.58
2022-10-07T12:06:27.352Z,1.80
2022-10-07T12:11:39.814Z,1.60
2022-10-07T12:16:52.542Z,1.23
2022-10-07T12:22:00.214Z,1.50
2022-10-07T12:27:17.392Z,1.48
2022-10-07T12:32:56.296Z,1.60
2022-10-07T12:38:26.136Z,1.60
2022-10-07T12:43:48.087Z,1.75
2022-10-07T12:49:01.950Z,1.50
2022-10-07T12:54:10.370Z,1.90
2022-10-07T12:59:49.369Z,1.90
2022-10-07T13:05:00.474Z,1.67
2022-10-07T13:10:40.157Z,1.35
2022-10-07T13:15:44.780Z,2.40
2022-10-07T13:20:58.757Z,1.77
2022-10-07T13:26:03.426Z,1.85
2022-10-07T13:31:25.249Z,1.80
2022-10-07T13:36:30.190Z,1.60
2022-10-07T13:41:32.000Z,1.80
2022-10-07T13:46:36.372Z,1.70
2022-10-07T13:51:44.034Z,2.00
2022-10-07T13:56:46.502Z,2.10
2022-10-07T14:01:54.325Z,2.10
2022-10-07T14:06:58.268Z,2.10
2022-10-07T14:12:24.709Z,1.85
2022-10-07T14:17:38.102Z,1.80
2022-10-07T14:22:41.333Z,1.60
2022-10-07T14:27:45.751Z,1.70
2022-10-07T14:33:22.661Z,1.98
2022-10-07T14:38:29.300Z,2.60
2022-10-07T14:43:33.025Z,1.70
2022-10-07T14:48:34.926Z,2.53
2022-10-07T14:53:37.539Z,2.33
2022-10-07T14:58:39.198Z,2.35
2022-10-07T15:03:40.883Z,1.70
2022-10-07T15:08:47.015Z,2.20
2022-10-07T15:13:50.051Z,1.70
2022-10-07T15:18:53.056Z,1.50
2022-10-07T15:23:55.977Z,3.67
2022-10-07T15:28:59.099Z,4.10
2022-10-07T15:34:00.759Z,2.25
2022-10-07T15:39:02.564Z,2.42
2022-10-07T15:44:13.744Z,2.55
2022-10-07T15:49:16.980Z,2.13
2022-10-07T15:54:18.759Z,2.10
2022-10-07T15:59:20.874Z,2.35
2022-10-07T16:04:22.798Z,3.30
2022-10-07T16:09:24.506Z,2.67
2022-10-07T16:14:26.141Z,2.53
2022-10-07T16:19:27.766Z,2.90
2022-10-07T16:24:34.722Z,2.30
2022-10-07T16:29:55.837Z,3.50
2022-10-07T16:34:57.571Z,3.65
2022-10-07T16:39:59.228Z,4.50
2022-10-07T16:45:00.937Z,5.78
2022-10-07T16:50:06.405Z,7.78
2022-10-07T16:55:11.769Z,9.70
2022-10-07T17:00:14.691Z,11.88
2022-10-07T17:05:17.194Z,8.00
2022-10-07T17:10:20.236Z,7.85
2022-10-07T17:15:21.938Z,12.13
2022-10-07T17:20:23.916Z,10.30
2022-10-07T17:25:27.526Z,6.40
2022-10-07T17:30:30.658Z,8.73
2022-10-07T17:35:32.675Z,7.72
2022-10-07T17:40:36.624Z,8.25
2022-10-07T17:45:39.620Z,7.45
2022-10-07T17:50:41.247Z,9.07
2022-10-07T17:55:50.970Z,7.93
2022-10-07T18:00:52.756Z,10.10
2022-10-07T18:05:54.507Z,12.38
2022-10-07T18:10:56.200Z,10.77
2022-10-07T18:16:00.309Z,12.80
2022-10-07T18:21:04.523Z,9.27
2022-10-07T18:26:08.682Z,9.68
2022-10-07T18:31:12.172Z,10.40
2022-10-07T18:36:16.911Z,9.25
2022-10-07T18:41:19.118Z,8.30
2022-10-07T18:46:21.170Z,8.48
2022-10-07T18:51:23.165Z,6.35
2022-10-07T18:56:24.927Z,5.70
2022-10-07T19:01:30.130Z,5.72
2022-10-07T19:06:35.046Z,6.40
2022-10-07T19:11:36.704Z,5.70
2022-10-07T19:16:40.889Z,5.35
2022-10-07T19:21:51.405Z,5.90
2022-10-07T19:26:53.991Z,6.05
2022-10-07T19:31:56.639Z,6.03
2022-10-07T19:36:58.324Z,5.90
2022-10-07T19:41:59.978Z,5.97
2022-10-07T19:47:01.706Z,6.97
2022-10-07T19:52:03.403Z,6.03
2022-10-07T19:57:05.013Z,6.35
2022-10-07T20:02:08.603Z,6.25
2022-10-07T20:07:11.047Z,6.22
2022-10-07T20:12:13.929Z,6.72
2022-10-07T20:17:15.633Z,5.68
2022-10-07T20:22:17.296Z,6.35
2022-10-07T20:27:19.982Z,6.25
2022-10-07T20:32:22.322Z,6.90
2022-10-07T20:37:24.104Z,6.85
2022-10-07T20:42:28.667Z,6.10
2022-10-07T20:47:32.701Z,6.28
2022-10-07T20:52:35.906Z,6.30
2022-10-07T20:57:38.405Z,6.18
2022-10-07T21:02:40.187Z,6.43
2022-10-07T21:07:43.228Z,6.78
2022-10-07T21:12:45.148Z,6.47
2022-10-07T21:17:48.728Z,6.50
2022-10-07T21:22:52.000Z,6.68
2022-10-07T21:27:53.631Z,6.63
2022-10-07T21:32:55.254Z,6.72
2022-10-07T21:37:56.977Z,6.93
2022-10-07T21:42:58.606Z,7.20
2022-10-07T21:48:00.235Z,6.90
2022-10-07T21:53:02.045Z,7.00
2022-10-07T21:58:03.667Z,6.45
2022-10-07T22:03:05.418Z,6.72
2022-10-07T22:08:31.135Z,6.35
2022-10-07T22:13:36.380Z,6.68
2022-10-07T22:18:38.065Z,7.75
2022-10-07T22:23:40.917Z,6.80
2022-10-07T22:28:43.331Z,7.57
2022-10-07T22:33:51.501Z,7.25
2022-10-07T22:38:55.550Z,7.03
2022-10-07T22:43:58.951Z,7.25
2022-10-07T22:49:00.565Z,8.10
2022-10-07T22:54:02.212Z,6.97
2022-10-07T22:59:03.859Z,6.50
2022-10-07T23:04:05.554Z,6.72
2022-10-07T23:09:07.285Z,7.13
2022-10-07T23:14:08.939Z,6.60
2022-10-07T23:19:10.667Z,6.85
2022-10-07T23:24:13.823Z,6.20
2022-10-07T23:29:15.656Z,6.80
2022-10-07T23:34:18.506Z,6.82
2022-10-07T23:39:20.235Z,6.82
2022-10-07T23:44:23.044Z,6.50
2022-10-07T23:49:24.688Z,6.40
2022-10-07T23:54:26.396Z,6.07
2022-10-07T23:59:28.061Z,7.07
